createdAt,value
2018-01-02T00:00:39.560Z,0
2018-01-02T00:01:39.564Z,0
2018-01-02T00:02:39.856Z,0
2018-01-02T00:03:39.314Z,0
2018-01-02T00:04:39.880Z,0
2018-01-02T00:05:39.888Z,0
2018-01-02T00:06:39.903Z,0
2018-01-02T00:07:39.912Z,0
2018-01-02T00:08:40.206Z,0
2018-01-02T00:09:39.671Z,0
2018-01-02T00:10:39.678Z,0
2018-01-02T00:11:40.250Z,0
2018-01-02T00:12:39.432Z,0
2018-01-02T00:13:39.999Z,0
2018-01-02T00:14:39.736Z,0
2018-01-02T00:15:39.746Z,0
2018-01-02T00:16:40.319Z,0
2018-01-02T00:17:39.777Z,0
2018-01-02T00:18:40.339Z,0
2018-01-02T00:19:39.803Z,0
2018-01-02T00:20:40.141Z,0
2018-01-02T00:21:40.108Z,0
2018-01-02T00:22:40.120Z,0
2018-01-02T00:23:39.858Z,0
2018-01-02T00:24:39.594Z,0
2018-01-02T00:25:39.609Z,0
2018-01-02T00:26:40.450Z,0
2018-01-02T00:27:39.911Z,0
2018-01-02T00:28:39.924Z,0
2018-01-02T00:29:40.485Z,0
2018-01-02T00:30:40.227Z,0
2018-01-02T00:31:39.966Z,0
2018-01-02T00:32:40.254Z,0
2018-01-02T00:33:39.717Z,0
2018-01-02T00:34:40.557Z,0
2018-01-02T00:35:40.624Z,0
2018-01-02T00:36:40.309Z,0
2018-01-02T00:37:40.048Z,0
2018-01-02T00:38:40.613Z,0
2018-01-02T00:39:40.345Z,0
2018-01-02T00:40:40.407Z,0
2018-01-02T00:41:40.377Z,0
2018-01-02T00:42:40.396Z,0
2018-01-02T00:43:40.402Z,0
2018-01-02T00:44:40.687Z,0
2018-01-02T00:45:40.154Z,0
2018-01-02T00:46:39.889Z,0
2018-01-02T00:47:40.178Z,0
2018-01-02T00:48:39.921Z,0
2018-01-02T00:49:40.205Z,0
2018-01-02T00:50:40.505Z,0
2018-01-02T00:51:40.507Z,0
2018-01-02T00:52:40.799Z,0
2018-01-02T00:53:40.268Z,0
2018-01-02T00:54:40.549Z,0
2018-01-02T00:55:40.561Z,0
2018-01-02T00:56:40.299Z,0
2018-01-02T00:57:40.314Z,0
2018-01-02T00:58:40.602Z,0
2018-01-02T00:59:40.337Z,0
2018-01-02T01:00:40.908Z,0
2018-01-02T01:01:40.366Z,0
2018-01-02T01:02:40.931Z,0
2018-01-02T01:03:40.953Z,0
2018-01-02T01:04:40.690Z,0
2018-01-02T01:05:41.023Z,0
2018-01-02T01:06:41.101Z,0
2018-01-02T01:07:40.998Z,0
2018-01-02T01:08:40.517Z,0
2018-01-02T01:09:41.022Z,0
2018-01-02T01:10:40.496Z,0
2018-01-02T01:11:40.772Z,0
2018-01-02T01:12:40.790Z,0
2018-01-02T01:13:40.530Z,0
2018-01-02T01:14:40.820Z,0
2018-01-02T01:15:41.105Z,0
2018-01-02T01:16:40.843Z,0
2018-01-02T01:17:40.590Z,0
2018-01-02T01:18:40.606Z,0
2018-01-02T01:19:40.889Z,0
2018-01-02T01:20:40.953Z,0
2018-01-02T01:21:40.365Z,0
2018-01-02T01:22:40.377Z,0
2018-01-02T01:23:41.214Z,0
2018-01-02T01:24:40.677Z,0
2018-01-02T01:25:41.015Z,0
2018-01-02T01:26:40.427Z,0
2018-01-02T01:27:40.724Z,0
2018-01-02T01:28:41.280Z,0
2018-01-02T01:29:41.020Z,0
2018-01-02T01:30:40.758Z,0
2018-01-02T01:31:40.502Z,0
2018-01-02T01:32:41.064Z,0
2018-01-02T01:33:40.797Z,0
2018-01-02T01:34:41.089Z,0
2018-01-02T01:35:41.424Z,0
2018-01-02T01:36:41.117Z,0
2018-01-02T01:37:40.849Z,0
2018-01-02T01:38:41.148Z,0
2018-01-02T01:39:40.882Z,0
2018-01-02T01:40:41.502Z,0
2018-01-02T01:41:41.460Z,0
2018-01-02T01:42:41.468Z,0
2018-01-02T01:43:41.480Z,0
2018-01-02T01:44:41.501Z,0
2018-01-02T01:45:41.558Z,0
2018-01-02T01:46:40.974Z,0
2018-01-02T01:47:41.259Z,0
2018-01-02T01:48:41.001Z,0
2018-01-02T01:49:41.334Z,0
2018-01-02T01:50:41.348Z,0
2018-01-02T01:51:41.315Z,0
2018-01-02T01:52:41.051Z,0
2018-01-02T01:53:41.337Z,0
2018-01-02T01:54:41.361Z,0
2018-01-02T01:55:41.092Z,0
2018-01-02T01:56:41.379Z,0
2018-01-02T01:57:41.395Z,0
2018-01-02T01:58:41.131Z,0
2018-01-02T01:59:41.155Z,0
2018-01-02T02:00:41.156Z,0
2018-01-02T02:01:41.170Z,0
2018-01-02T02:02:41.460Z,0
2018-01-02T02:03:41.751Z,0
2018-01-02T02:04:41.214Z,0
2018-01-02T02:05:41.824Z,0
2018-01-02T02:06:41.560Z,0
2018-01-02T02:07:41.526Z,0
2018-01-02T02:08:41.546Z,0
2018-01-02T02:09:41.282Z,0
2018-01-02T02:10:41.616Z,0
2018-01-02T02:11:41.306Z,0
2018-01-02T02:12:41.591Z,0
2018-01-02T02:13:41.882Z,0
2018-01-02T02:14:41.619Z,0
2018-01-02T02:15:41.683Z,0
2018-01-02T02:16:41.646Z,0
2018-01-02T02:17:41.940Z,0
2018-01-02T02:18:41.670Z,0
2018-01-02T02:19:41.685Z,0
2018-01-02T02:20:42.024Z,0
2018-01-02T02:21:41.990Z,0
2018-01-02T02:22:41.454Z,0
2018-01-02T02:23:41.462Z,0
2018-01-02T02:24:41.203Z,0
2018-01-02T02:25:42.090Z,0
2018-01-02T02:26:41.780Z,0
2018-01-02T02:27:41.792Z,0
2018-01-02T02:28:41.258Z,0
2018-01-02T02:29:41.817Z,0
2018-01-02T02:30:42.113Z,0
2018-01-02T02:31:41.854Z,0
2018-01-02T02:32:41.868Z,0
2018-01-02T02:33:41.602Z,0
2018-01-02T02:34:41.610Z,0
2018-01-02T02:35:41.903Z,0
2018-01-02T02:36:42.239Z,0
2018-01-02T02:37:41.929Z,0
2018-01-02T02:38:42.225Z,0
2018-01-02T02:39:41.954Z,0
2018-01-02T02:40:42.017Z,0
2018-01-02T02:41:41.703Z,0
2018-01-02T02:42:42.021Z,0
2018-01-02T02:43:42.281Z,0
2018-01-02T02:44:41.740Z,0
2018-01-02T02:45:42.087Z,0
2018-01-02T02:46:42.319Z,0
2018-01-02T02:47:42.340Z,0
2018-01-02T02:48:42.352Z,0
2018-01-02T02:49:41.813Z,0
2018-01-02T02:50:42.098Z,0
2018-01-02T02:51:42.118Z,0
2018-01-02T02:52:42.403Z,0
2018-01-02T02:53:42.153Z,0
2018-01-02T02:54:41.877Z,0
2018-01-02T02:55:41.890Z,0
2018-01-02T02:56:42.453Z,0
2018-01-02T02:57:41.916Z,0
2018-01-02T02:58:42.211Z,0
2018-01-02T02:59:42.221Z,0
2018-01-02T03:00:42.287Z,0
2018-01-02T03:01:41.973Z,0
2018-01-02T03:02:41.985Z,0
2018-01-02T03:03:41.996Z,0
2018-01-02T03:04:42.011Z,0
2018-01-02T03:05:42.022Z,0
2018-01-02T03:06:42.038Z,0
2018-01-02T03:07:42.599Z,0
2018-01-02T03:08:42.342Z,0
2018-01-02T03:09:41.803Z,0
2018-01-02T03:10:42.088Z,0
2018-01-02T03:11:42.656Z,0
2018-01-02T03:12:42.119Z,0
2018-01-02T03:13:42.135Z,0
2018-01-02T03:14:42.146Z,0
2018-01-02T03:15:42.703Z,0
2018-01-02T03:16:42.715Z,0
2018-01-02T03:17:42.460Z,0
2018-01-02T03:18:42.486Z,0
2018-01-02T03:19:42.211Z,0
2018-01-02T03:20:42.547Z,0
2018-01-02T03:21:42.781Z,0
2018-01-02T03:22:42.532Z,0
2018-01-02T03:23:42.263Z,0
2018-01-02T03:24:42.551Z,0
2018-01-02T03:25:42.289Z,0
2018-01-02T03:26:42.582Z,0
2018-01-02T03:27:42.588Z,0
2018-01-02T03:28:42.876Z,0
2018-01-02T03:29:42.616Z,0
2018-01-02T03:30:42.918Z,0
2018-01-02T03:31:42.640Z,0
2018-01-02T03:32:42.658Z,0
2018-01-02T03:33:42.945Z,0
2018-01-02T03:34:42.967Z,0
2018-01-02T03:35:42.696Z,0
2018-01-02T03:36:42.436Z,0
2018-01-02T03:37:42.997Z,0
2018-01-02T03:38:42.458Z,0
2018-01-02T03:39:43.028Z,0
2018-01-02T03:40:42.761Z,0
2018-01-02T03:41:42.503Z,0
2018-01-02T03:42:42.813Z,0
2018-01-02T03:43:42.804Z,0
2018-01-02T03:44:42.836Z,0
2018-01-02T03:45:42.552Z,0
2018-01-02T03:46:42.568Z,0
2018-01-02T03:47:42.850Z,0
2018-01-02T03:48:42.593Z,0
2018-01-02T03:49:42.884Z,0
2018-01-02T03:50:42.621Z,0
2018-01-02T03:51:43.182Z,0
2018-01-02T03:52:42.923Z,0
2018-01-02T03:53:42.929Z,0
2018-01-02T03:54:42.671Z,0
2018-01-02T03:55:42.960Z,0
2018-01-02T03:56:42.977Z,0
2018-01-02T03:57:42.710Z,0
2018-01-02T03:58:42.721Z,0
2018-01-02T03:59:42.735Z,0
2018-01-02T04:00:42.756Z,0
2018-01-02T04:01:42.764Z,0
2018-01-02T04:02:43.048Z,0
2018-01-02T04:03:43.066Z,0
2018-01-02T04:04:43.078Z,0
2018-01-02T04:05:43.093Z,0
2018-01-02T04:06:43.379Z,0
2018-01-02T04:07:43.112Z,0
2018-01-02T04:08:43.129Z,0
2018-01-02T04:09:42.865Z,0
2018-01-02T04:10:43.163Z,0
2018-01-02T04:11:43.498Z,0
2018-01-02T04:12:43.460Z,0
2018-01-02T04:13:42.646Z,0
2018-01-02T04:14:42.932Z,0
2018-01-02T04:15:43.495Z,0
2018-01-02T04:16:43.007Z,0
2018-01-02T04:17:42.975Z,0
2018-01-02T04:18:43.261Z,0
2018-01-02T04:19:42.997Z,0
2018-01-02T04:20:43.287Z,0
2018-01-02T04:21:43.356Z,0
2018-01-02T04:22:43.046Z,0
2018-01-02T04:23:43.051Z,0
2018-01-02T04:24:43.431Z,0
2018-01-02T04:25:43.353Z,0
2018-01-02T04:26:43.088Z,0
2018-01-02T04:27:43.103Z,0
2018-01-02T04:28:43.391Z,0
2018-01-02T04:29:43.128Z,0
2018-01-02T04:30:43.416Z,0
2018-01-02T04:31:43.758Z,0
2018-01-02T04:32:43.177Z,0
2018-01-02T04:33:43.458Z,0
2018-01-02T04:34:43.744Z,0
2018-01-02T04:35:43.758Z,0
2018-01-02T04:36:43.224Z,0
2018-01-02T04:37:43.791Z,0
2018-01-02T04:38:43.250Z,0
2018-01-02T04:39:43.264Z,0
2018-01-02T04:40:43.822Z,0
2018-01-02T04:41:43.836Z,0
2018-01-02T04:42:43.576Z,0
2018-01-02T04:43:43.323Z,0
2018-01-02T04:44:43.603Z,0
2018-01-02T04:45:43.618Z,0
2018-01-02T04:46:43.628Z,0
2018-01-02T04:47:43.363Z,0
2018-01-02T04:48:43.104Z,0
2018-01-02T04:49:43.666Z,0
2018-01-02T04:50:43.952Z,0
2018-01-02T04:51:43.691Z,0
2018-01-02T04:52:43.698Z,0
2018-01-02T04:53:43.725Z,0
2018-01-02T04:54:43.726Z,0
2018-01-02T04:55:43.472Z,0
2018-01-02T04:56:43.808Z,0
2018-01-02T04:57:43.493Z,0
2018-01-02T04:58:43.560Z,0
2018-01-02T04:59:43.804Z,0
2018-01-02T05:00:43.805Z,0
2018-01-02T05:01:43.324Z,0
2018-01-02T05:02:43.556Z,0
2018-01-02T05:03:44.126Z,0
2018-01-02T05:04:43.866Z,0
2018-01-02T05:05:43.334Z,0
2018-01-02T05:06:43.607Z,0
2018-01-02T05:07:43.624Z,0
2018-01-02T05:08:43.917Z,0
2018-01-02T05:09:43.920Z,0
2018-01-02T05:10:43.942Z,0
2018-01-02T05:11:44.222Z,0
2018-01-02T05:12:43.968Z,0
2018-01-02T05:13:43.428Z,0
2018-01-02T05:14:43.989Z,0
2018-01-02T05:15:43.998Z,0
2018-01-02T05:16:44.015Z,0
2018-01-02T05:17:44.024Z,0
2018-01-02T05:18:43.767Z,0
2018-01-02T05:19:44.053Z,0
2018-01-02T05:20:44.065Z,0
2018-01-02T05:21:43.533Z,0
2018-01-02T05:22:44.094Z,0
2018-01-02T05:23:44.106Z,0
2018-01-02T05:24:43.570Z,0
2018-01-02T05:25:44.410Z,0
2018-01-02T05:26:44.145Z,0
2018-01-02T05:27:43.939Z,0
2018-01-02T05:28:44.446Z,0
2018-01-02T05:29:43.909Z,0
2018-01-02T05:30:43.646Z,0
2018-01-02T05:31:43.930Z,0
2018-01-02T05:32:44.273Z,0
2018-01-02T05:33:43.690Z,0
2018-01-02T05:34:44.263Z,0
2018-01-02T05:35:43.980Z,0
2018-01-02T05:36:44.002Z,0
2018-01-02T05:37:43.738Z,0
2018-01-02T05:38:44.295Z,0
2018-01-02T05:39:44.307Z,0
2018-01-02T05:40:44.049Z,0
2018-01-02T05:41:44.337Z,0
2018-01-02T05:42:44.402Z,0
2018-01-02T05:43:44.083Z,0
2018-01-02T05:44:44.373Z,0
2018-01-02T05:45:44.393Z,0
2018-01-02T05:46:43.853Z,0
2018-01-02T05:47:44.682Z,0
2018-01-02T05:48:44.148Z,0
2018-01-02T05:49:44.714Z,0
2018-01-02T05:50:44.724Z,0
2018-01-02T05:51:44.191Z,0
2018-01-02T05:52:44.198Z,0
2018-01-02T05:53:44.532Z,0
2018-01-02T05:54:44.227Z,0
2018-01-02T05:55:44.237Z,0
2018-01-02T05:56:44.531Z,0
2018-01-02T05:57:44.537Z,0
2018-01-02T05:58:44.550Z,0
2018-01-02T05:59:44.298Z,0
2018-01-02T06:00:44.301Z,0
2018-01-02T06:01:44.594Z,0
2018-01-02T06:02:44.053Z,0
2018-01-02T06:03:44.612Z,0
2018-01-02T06:04:44.079Z,0
2018-01-02T06:05:44.091Z,0
2018-01-02T06:06:44.375Z,0
2018-01-02T06:07:44.389Z,0
2018-01-02T06:08:44.726Z,0
2018-01-02T06:09:44.970Z,0
2018-01-02T06:10:44.429Z,0
2018-01-02T06:11:44.716Z,0
2018-01-02T06:12:45.003Z,0
2018-01-02T06:13:45.066Z,0
2018-01-02T06:14:45.041Z,0
2018-01-02T06:15:44.769Z,0
2018-01-02T06:16:44.230Z,0
2018-01-02T06:17:44.517Z,0
2018-01-02T06:18:44.808Z,0
2018-01-02T06:19:44.539Z,0
2018-01-02T06:20:44.833Z,0
2018-01-02T06:21:45.114Z,0
2018-01-02T06:22:45.128Z,0
2018-01-02T06:23:45.140Z,0
2018-01-02T06:24:44.933Z,0
2018-01-02T06:25:45.236Z,0
2018-01-02T06:26:44.358Z,0
2018-01-02T06:27:44.918Z,0
2018-01-02T06:28:44.979Z,0
2018-01-02T06:29:45.217Z,0
2018-01-02T06:30:45.228Z,0
2018-01-02T06:31:44.689Z,0
2018-01-02T06:32:45.255Z,0
2018-01-02T06:33:45.318Z,0
2018-01-02T06:34:44.732Z,0
2018-01-02T06:35:45.017Z,0
2018-01-02T06:36:45.030Z,0
2018-01-02T06:37:45.049Z,0
2018-01-02T06:38:45.163Z,0
2018-01-02T06:39:45.068Z,0
2018-01-02T06:40:44.809Z,0
2018-01-02T06:41:44.821Z,0
2018-01-02T06:42:44.830Z,0
2018-01-02T06:43:45.125Z,0
2018-01-02T06:44:45.407Z,0
2018-01-02T06:45:44.872Z,0
2018-01-02T06:46:44.878Z,0
2018-01-02T06:47:44.618Z,0
2018-01-02T06:48:44.996Z,0
2018-01-02T06:49:45.191Z,0
2018-01-02T06:50:45.201Z,0
2018-01-02T06:51:45.496Z,0
2018-01-02T06:52:45.501Z,0
2018-01-02T06:53:45.025Z,0
2018-01-02T06:54:45.527Z,0
2018-01-02T06:55:44.999Z,0
2018-01-02T06:56:45.008Z,0
2018-01-02T06:57:45.023Z,4
2018-01-02T06:58:45.081Z,4
2018-01-02T06:59:45.055Z,4
2018-01-02T07:00:45.346Z,4
2018-01-02T07:01:45.343Z,0
2018-01-02T07:02:45.081Z,4
2018-01-02T07:03:45.655Z,4
2018-01-02T07:04:45.104Z,0
2018-01-02T07:05:45.120Z,4
2018-01-02T07:06:45.422Z,4
2018-01-02T07:07:45.423Z,4
2018-01-02T07:08:45.748Z,8
2018-01-02T07:09:44.891Z,4
2018-01-02T07:10:45.454Z,4
2018-01-02T07:11:44.916Z,8
2018-01-02T07:12:45.209Z,4
2018-01-02T07:13:45.539Z,8
2018-01-02T07:14:45.231Z,8
2018-01-02T07:15:45.519Z,8
2018-01-02T07:16:45.530Z,8
2018-01-02T07:17:45.550Z,8
2018-01-02T07:18:45.560Z,12
2018-01-02T07:19:45.564Z,8
2018-01-02T07:20:45.581Z,8
2018-01-02T07:21:45.867Z,8
2018-01-02T07:22:45.337Z,12
2018-01-02T07:23:45.443Z,12
2018-01-02T07:24:45.633Z,12
2018-01-02T07:25:45.366Z,16
2018-01-02T07:26:45.405Z,20
2018-01-02T07:27:45.668Z,24
2018-01-02T07:28:45.678Z,24
2018-01-02T07:29:45.144Z,20
2018-01-02T07:30:45.701Z,24
2018-01-02T07:31:45.488Z,28
2018-01-02T07:32:45.728Z,28
2018-01-02T07:33:45.498Z,32
2018-01-02T07:34:45.476Z,36
2018-01-02T07:35:45.406Z,40
2018-01-02T07:36:45.504Z,44
2018-01-02T07:37:45.511Z,44
2018-01-02T07:38:45.529Z,40
2018-01-02T07:39:45.319Z,44
2018-01-02T07:40:45.838Z,48
2018-01-02T07:41:45.850Z,44
2018-01-02T07:42:46.132Z,44
2018-01-02T07:43:45.591Z,48
2018-01-02T07:44:45.620Z,56
2018-01-02T07:45:45.638Z,52
2018-01-02T07:46:45.638Z,52
2018-01-02T07:47:46.192Z,56
2018-01-02T07:48:45.378Z,60
2018-01-02T07:49:45.665Z,68
2018-01-02T07:50:46.234Z,84
2018-01-02T07:51:45.692Z,88
2018-01-02T07:52:45.704Z,96
2018-01-02T07:53:45.994Z,96
2018-01-02T07:54:45.785Z,112
2018-01-02T07:55:45.464Z,104
2018-01-02T07:56:45.757Z,100
2018-01-02T07:57:46.044Z,104
2018-01-02T07:58:46.058Z,120
2018-01-02T07:59:45.796Z,136
2018-01-02T08:00:45.804Z,136
2018-01-02T08:01:45.819Z,136
2018-01-02T08:02:46.400Z,140
2018-01-02T08:03:46.118Z,140
2018-01-02T08:04:45.962Z,140
2018-01-02T08:05:45.589Z,156
2018-01-02T08:06:46.157Z,176
2018-01-02T08:07:46.436Z,176
2018-01-02T08:08:46.456Z,164
2018-01-02T08:09:45.964Z,160
2018-01-02T08:10:46.208Z,164
2018-01-02T08:11:45.939Z,164
2018-01-02T08:12:46.225Z,176
2018-01-02T08:13:46.236Z,168
2018-01-02T08:14:46.309Z,180
2018-01-02T08:15:46.548Z,168
2018-01-02T08:16:46.337Z,164
2018-01-02T08:17:46.564Z,180
2018-01-02T08:18:46.303Z,192
2018-01-02T08:19:45.819Z,200
2018-01-02T08:20:46.376Z,236
2018-01-02T08:21:46.064Z,224
2018-01-02T08:22:46.349Z,216
2018-01-02T08:23:46.378Z,240
2018-01-02T08:24:45.877Z,244
2018-01-02T08:25:46.393Z,256
2018-01-02T08:26:46.403Z,212
2018-01-02T08:27:46.422Z,280
2018-01-02T08:28:46.160Z,244
2018-01-02T08:29:46.488Z,176
2018-01-02T08:30:46.452Z,184
2018-01-02T08:31:46.188Z,180
2018-01-02T08:32:46.481Z,156
2018-01-02T08:33:46.765Z,168
2018-01-02T08:34:46.829Z,196
2018-01-02T08:35:46.788Z,172
2018-01-02T08:36:45.976Z,164
2018-01-02T08:37:46.541Z,164
2018-01-02T08:38:46.270Z,192
2018-01-02T08:39:46.063Z,192
2018-01-02T08:40:46.576Z,192
2018-01-02T08:41:46.887Z,200
2018-01-02T08:42:46.928Z,200
2018-01-02T08:43:46.337Z,172
2018-01-02T08:44:46.676Z,140
2018-01-02T08:45:46.362Z,132
2018-01-02T08:46:46.123Z,144
2018-01-02T08:47:46.939Z,144
2018-01-02T08:48:46.676Z,120
2018-01-02T08:49:46.733Z,144
2018-01-02T08:50:46.703Z,152
2018-01-02T08:51:46.991Z,156
2018-01-02T08:52:46.455Z,168
2018-01-02T08:53:46.732Z,180
2018-01-02T08:54:46.200Z,172
2018-01-02T08:55:47.068Z,196
2018-01-02T08:56:47.068Z,188
2018-01-02T08:57:46.790Z,216
2018-01-02T08:58:46.524Z,168
2018-01-02T08:59:46.324Z,148
2018-01-02T09:00:46.824Z,164
2018-01-02T09:01:47.111Z,172
2018-01-02T09:02:47.129Z,152
2018-01-02T09:03:47.217Z,180
2018-01-02T09:04:46.919Z,168
2018-01-02T09:05:46.608Z,160
2018-01-02T09:06:46.894Z,208
2018-01-02T09:07:46.359Z,208
2018-01-02T09:08:47.204Z,168
2018-01-02T09:09:47.281Z,192
2018-01-02T09:10:46.952Z,228
2018-01-02T09:11:46.959Z,220
2018-01-02T09:12:46.697Z,196
2018-01-02T09:13:46.708Z,188
2018-01-02T09:14:46.995Z,248
2018-01-02T09:15:46.737Z,292
2018-01-02T09:16:46.759Z,284
2018-01-02T09:17:47.042Z,324
2018-01-02T09:18:47.324Z,452
2018-01-02T09:19:47.392Z,524
2018-01-02T09:20:47.345Z,484
2018-01-02T09:21:46.820Z,528
2018-01-02T09:22:46.545Z,580
2018-01-02T09:23:47.111Z,584
2018-01-02T09:24:47.125Z,544
2018-01-02T09:25:46.592Z,616
2018-01-02T09:26:47.152Z,668
2018-01-02T09:27:47.160Z,656
2018-01-02T09:28:47.169Z,620
2018-01-02T09:29:47.184Z,628
2018-01-02T09:30:46.921Z,668
2018-01-02T09:31:47.207Z,644
2018-01-02T09:32:47.220Z,596
2018-01-02T09:33:47.239Z,556
2018-01-02T09:34:46.967Z,532
2018-01-02T09:35:47.588Z,536
2018-01-02T09:36:47.546Z,548
2018-01-02T09:37:47.002Z,552
2018-01-02T09:38:47.567Z,612
2018-01-02T09:39:47.038Z,600
2018-01-02T09:40:47.321Z,628
2018-01-02T09:41:46.853Z,688
2018-01-02T09:42:46.976Z,632
2018-01-02T09:43:46.998Z,568
2018-01-02T09:44:47.367Z,576
2018-01-02T09:45:47.659Z,604
2018-01-02T09:46:47.172Z,584
2018-01-02T09:47:47.408Z,588
2018-01-02T09:48:47.432Z,536
2018-01-02T09:49:47.160Z,572
2018-01-02T09:50:47.756Z,580
2018-01-02T09:51:47.456Z,624
2018-01-02T09:52:47.475Z,668
2018-01-02T09:53:46.935Z,676
2018-01-02T09:54:47.494Z,660
2018-01-02T09:55:47.559Z,512
2018-01-02T09:56:47.245Z,464
2018-01-02T09:57:47.537Z,504
2018-01-02T09:58:47.273Z,496
2018-01-02T09:59:47.284Z,520
2018-01-02T10:00:47.018Z,484
2018-01-02T10:01:47.303Z,424
2018-01-02T10:02:47.318Z,352
2018-01-02T10:03:47.331Z,352
2018-01-02T10:04:47.622Z,316
2018-01-02T10:05:47.961Z,324
2018-01-02T10:06:47.369Z,368
2018-01-02T10:07:47.661Z,388
2018-01-02T10:08:47.676Z,396
2018-01-02T10:09:47.453Z,388
2018-01-02T10:10:47.699Z,400
2018-01-02T10:11:47.437Z,424
2018-01-02T10:12:47.724Z,372
2018-01-02T10:13:47.844Z,336
2018-01-02T10:14:47.465Z,256
2018-01-02T10:15:47.813Z,256
2018-01-02T10:16:47.498Z,308
2018-01-02T10:17:47.805Z,340
2018-01-02T10:18:47.794Z,328
2018-01-02T10:19:47.806Z,428
2018-01-02T10:20:47.813Z,436
2018-01-02T10:21:47.832Z,544
2018-01-02T10:22:48.120Z,556
2018-01-02T10:23:47.854Z,512
2018-01-02T10:24:48.146Z,436
2018-01-02T10:25:48.156Z,424
2018-01-02T10:26:47.343Z,448
2018-01-02T10:27:47.908Z,508
2018-01-02T10:28:47.936Z,524
2018-01-02T10:29:47.929Z,488
2018-01-02T10:30:47.947Z,520
2018-01-02T10:31:47.682Z,544
2018-01-02T10:32:47.972Z,532
2018-01-02T10:33:47.982Z,584
2018-01-02T10:34:48.000Z,632
2018-01-02T10:35:47.732Z,628
2018-01-02T10:36:47.744Z,620
2018-01-02T10:37:48.036Z,604
2018-01-02T10:38:48.063Z,584
2018-01-02T10:39:48.055Z,564
2018-01-02T10:40:47.684Z,584
2018-01-02T10:41:48.095Z,644
2018-01-02T10:42:48.094Z,656
2018-01-02T10:43:48.168Z,668
2018-01-02T10:44:48.398Z,664
2018-01-02T10:45:48.133Z,692
2018-01-02T10:46:47.923Z,732
2018-01-02T10:47:48.158Z,768
2018-01-02T10:48:48.170Z,696
2018-01-02T10:49:47.913Z,620
2018-01-02T10:50:48.200Z,596
2018-01-02T10:51:48.269Z,584
2018-01-02T10:52:47.948Z,584
2018-01-02T10:53:48.243Z,568
2018-01-02T10:54:47.976Z,612
2018-01-02T10:55:47.994Z,672
2018-01-02T10:56:49.313Z,756
2018-01-02T10:57:48.018Z,864
2018-01-02T10:58:48.031Z,928
2018-01-02T10:59:48.044Z,924
2018-01-02T11:00:48.395Z,888
2018-01-02T11:01:48.452Z,872
2018-01-02T11:02:47.803Z,868
2018-01-02T11:03:48.642Z,772
2018-01-02T11:04:48.380Z,608
2018-01-02T11:05:48.390Z,532
2018-01-02T11:06:48.402Z,532
2018-01-02T11:07:48.143Z,528
2018-01-02T11:08:48.152Z,520
2018-01-02T11:09:48.440Z,504
2018-01-02T11:10:49.085Z,544
2018-01-02T11:11:48.103Z,644
2018-01-02T11:12:48.202Z,740
2018-01-02T11:13:48.490Z,704
2018-01-02T11:14:48.596Z,620
2018-01-02T11:15:48.520Z,616
2018-01-02T11:16:48.539Z,660
2018-01-02T11:17:48.542Z,700
2018-01-02T11:18:48.008Z,732
2018-01-02T11:19:48.574Z,780
2018-01-02T11:20:48.580Z,816
2018-01-02T11:21:48.921Z,816
2018-01-02T11:22:48.334Z,780
2018-01-02T11:23:48.076Z,780
2018-01-02T11:24:48.399Z,832
2018-01-02T11:25:48.644Z,856
2018-01-02T11:26:48.165Z,880
2018-01-02T11:27:48.402Z,844
2018-01-02T11:28:48.410Z,780
2018-01-02T11:29:48.977Z,816
2018-01-02T11:30:48.711Z,840
2018-01-02T11:31:48.727Z,684
2018-01-02T11:32:48.463Z,640
2018-01-02T11:33:48.755Z,660
2018-01-02T11:34:48.767Z,792
2018-01-02T11:35:48.505Z,772
2018-01-02T11:36:48.802Z,660
2018-01-02T11:37:48.804Z,588
2018-01-02T11:38:48.541Z,660
2018-01-02T11:39:48.613Z,700
2018-01-02T11:40:48.568Z,752
2018-01-02T11:41:48.307Z,704
2018-01-02T11:42:48.596Z,624
2018-01-02T11:43:49.167Z,624
2018-01-02T11:44:48.896Z,612
2018-01-02T11:45:49.183Z,728
2018-01-02T11:46:48.748Z,792
2018-01-02T11:47:48.664Z,772
2018-01-02T11:48:48.670Z,772
2018-01-02T11:49:49.245Z,784
2018-01-02T11:50:48.981Z,852
2018-01-02T11:51:48.811Z,1028
2018-01-02T11:52:48.726Z,1048
2018-01-02T11:53:49.014Z,1112
2018-01-02T11:54:49.030Z,1076
2018-01-02T11:55:48.766Z,1108
2018-01-02T11:56:48.826Z,1124
2018-01-02T11:57:48.791Z,1076
2018-01-02T11:58:49.365Z,948
2018-01-02T11:59:48.825Z,908
2018-01-02T12:00:48.839Z,944
2018-01-02T12:01:49.394Z,992
2018-01-02T12:02:49.417Z,888
2018-01-02T12:03:49.158Z,884
2018-01-02T12:04:49.161Z,848
2018-01-02T12:05:48.902Z,832
2018-01-02T12:06:49.470Z,832
2018-01-02T12:07:49.217Z,844
2018-01-02T12:08:49.487Z,668
2018-01-02T12:09:49.233Z,556
2018-01-02T12:10:49.258Z,600
2018-01-02T12:11:48.711Z,592
2018-01-02T12:12:49.274Z,564
2018-01-02T12:13:49.283Z,516
2018-01-02T12:14:49.569Z,596
2018-01-02T12:15:49.344Z,716
2018-01-02T12:16:48.832Z,780
2018-01-02T12:17:49.091Z,736
2018-01-02T12:18:49.377Z,688
2018-01-02T12:19:49.359Z,784
2018-01-02T12:20:49.370Z,716
2018-01-02T12:21:49.385Z,684
2018-01-02T12:22:49.415Z,668
2018-01-02T12:23:49.417Z,772
2018-01-02T12:24:48.879Z,860
2018-01-02T12:25:49.169Z,928
2018-01-02T12:26:49.467Z,960
2018-01-02T12:27:49.752Z,1016
2018-01-02T12:28:49.484Z,1024
2018-01-02T12:29:49.773Z,876
2018-01-02T12:30:49.230Z,976
2018-01-02T12:31:49.795Z,980
2018-01-02T12:32:49.537Z,1036
2018-01-02T12:33:49.278Z,1064
2018-01-02T12:34:49.014Z,1112
2018-01-02T12:35:49.304Z,1312
2018-01-02T12:36:49.866Z,1080
2018-01-02T12:37:49.655Z,816
2018-01-02T12:38:49.344Z,976
2018-01-02T12:39:49.916Z,1112
2018-01-02T12:40:49.650Z,840
2018-01-02T12:41:49.117Z,700
2018-01-02T12:42:49.949Z,760
2018-01-02T12:43:49.409Z,816
2018-01-02T12:44:49.971Z,812
2018-01-02T12:45:49.719Z,784
2018-01-02T12:46:49.776Z,1012
2018-01-02T12:47:49.468Z,1164
2018-01-02T12:48:49.474Z,968
2018-01-02T12:49:49.495Z,908
2018-01-02T12:50:49.505Z,816
2018-01-02T12:51:49.791Z,852
2018-01-02T12:52:49.820Z,684
2018-01-02T12:53:49.547Z,468
2018-01-02T12:54:50.114Z,500
2018-01-02T12:55:49.573Z,480
2018-01-02T12:56:49.863Z,340
2018-01-02T12:57:49.878Z,316
2018-01-02T12:58:49.618Z,312
2018-01-02T12:59:50.201Z,312
2018-01-02T13:00:50.190Z,316
2018-01-02T13:01:50.205Z,312
2018-01-02T13:02:49.944Z,312
2018-01-02T13:03:49.407Z,324
2018-01-02T13:04:49.981Z,368
2018-01-02T13:05:49.984Z,488
2018-01-02T13:06:49.995Z,632
2018-01-02T13:07:50.068Z,540
2018-01-02T13:08:50.020Z,364
2018-01-02T13:09:50.041Z,364
2018-01-02T13:10:50.323Z,420
2018-01-02T13:11:49.792Z,548
2018-01-02T13:12:49.808Z,596
2018-01-02T13:13:50.372Z,628
2018-01-02T13:14:50.382Z,596
2018-01-02T13:15:49.844Z,552
2018-01-02T13:16:50.413Z,544
2018-01-02T13:17:49.888Z,472
2018-01-02T13:18:50.167Z,484
2018-01-02T13:19:50.179Z,568
2018-01-02T13:20:49.917Z,568
2018-01-02T13:21:50.206Z,552
2018-01-02T13:22:49.668Z,564
2018-01-02T13:23:49.957Z,552
2018-01-02T13:24:50.245Z,484
2018-01-02T13:25:49.986Z,548
2018-01-02T13:26:50.274Z,644
2018-01-02T13:27:49.786Z,708
2018-01-02T13:28:50.303Z,768
2018-01-02T13:29:50.039Z,568
2018-01-02T13:30:49.779Z,512
2018-01-02T13:31:50.069Z,468
2018-01-02T13:32:50.423Z,332
2018-01-02T13:33:50.094Z,300
2018-01-02T13:34:50.113Z,268
2018-01-02T13:35:49.919Z,224
2018-01-02T13:36:50.190Z,232
2018-01-02T13:37:50.488Z,232
2018-01-02T13:38:50.164Z,200
2018-01-02T13:39:50.458Z,212
2018-01-02T13:40:50.480Z,300
2018-01-02T13:41:50.757Z,396
2018-01-02T13:42:50.771Z,376
2018-01-02T13:43:50.787Z,668
2018-01-02T13:44:50.803Z,772
2018-01-02T13:45:50.834Z,744
2018-01-02T13:46:50.825Z,364
2018-01-02T13:47:50.010Z,292
2018-01-02T13:48:50.591Z,384
2018-01-02T13:49:50.349Z,480
2018-01-02T13:50:50.337Z,456
2018-01-02T13:51:50.620Z,352
2018-01-02T13:52:50.678Z,424
2018-01-02T13:53:50.927Z,548
2018-01-02T13:54:50.386Z,332
2018-01-02T13:55:50.678Z,244
2018-01-02T13:56:50.413Z,232
2018-01-02T13:57:50.477Z,240
2018-01-02T13:58:50.443Z,276
2018-01-02T13:59:51.008Z,372
2018-01-02T14:00:50.483Z,348
2018-01-02T14:01:50.483Z,296
2018-01-02T14:02:50.770Z,288
2018-01-02T14:03:50.835Z,340
2018-01-02T14:04:50.800Z,412
2018-01-02T14:05:50.816Z,424
2018-01-02T14:06:50.829Z,376
2018-01-02T14:07:50.926Z,364
2018-01-02T14:08:50.860Z,356
2018-01-02T14:09:50.866Z,312
2018-01-02T14:10:51.157Z,256
2018-01-02T14:11:50.627Z,232
2018-01-02T14:12:51.186Z,248
2018-01-02T14:13:50.648Z,228
2018-01-02T14:14:50.934Z,228
2018-01-02T14:15:50.676Z,228
2018-01-02T14:16:50.694Z,212
2018-01-02T14:17:50.710Z,244